sensor_id;sensor_type;location;lat;lon;timestamp;P1;durP1;ratioP1;P2;durP2;ratioP2
15096;SDS011;7649;52.084;7.478;2022-10-28T00:01:00;9.70;;;5.25;;
15096;SDS011;7649;52.084;7.478;2022-10-28T00:03:28;11.70;;;6.53;;
15096;SDS011;7649;52.084;7.478;2022-10-28T00:06:01;10.02;;;5.38;;
15096;SDS011;7649;52.084;7.478;2022-10-28T00:08:30;7.22;;;5.90;;
15096;SDS011;7649;52.084;7.478;2022-10-28T00:11:02;6.20;;;5.60;;
15096;SDS011;7649;52.084;7.478;2022-10-28T00:13:30;7.93;;;5.70;;
15096;SDS011;7649;52.084;7.478;2022-10-28T00:16:03;12.82;;;5.75;;
15096;SDS011;7649;52.084;7.478;2022-10-28T00:18:31;11.27;;;6.07;;
15096;SDS011;7649;52.084;7.478;2022-10-28T00:21:01;8.00;;;5.35;;
15096;SDS011;7649;52.084;7.478;2022-10-28T00:23:30;9.07;;;5.70;;
15096;SDS011;7649;52.084;7.478;2022-10-28T00:26:05;12.20;;;5.70;;
15096;SDS011;7649;52.084;7.478;2022-10-28T00:28:34;10.75;;;5.22;;
15096;SDS011;7649;52.084;7.478;2022-10-28T00:31:03;7.55;;;5.65;;
15096;SDS011;7649;52.084;7.478;2022-10-28T00:33:31;9.88;;;5.68;;
15096;SDS011;7649;52.084;7.478;2022-10-28T00:36:07;9.75;;;5.43;;
15096;SDS011;7649;52.084;7.478;2022-10-28T00:38:35;14.60;;;5.88;;
15096;SDS011;7649;52.084;7.478;2022-10-28T00:41:04;8.87;;;5.40;;
15096;SDS011;7649;52.084;7.478;2022-10-28T00:43:33;9.20;;;5.50;;
15096;SDS011;7649;52.084;7.478;2022-10-28T00:46:01;10.60;;;5.90;;
15096;SDS011;7649;52.084;7.478;2022-10-28T00:48:30;14.93;;;6.10;;
15096;SDS011;7649;52.084;7.478;2022-10-28T00:50:58;9.17;;;5.20;;
15096;SDS011;7649;52.084;7.478;2022-10-28T00:53:28;11.83;;;5.63;;
15096;SDS011;7649;52.084;7.478;2022-10-28T00:55:59;8.20;;;5.63;;
15096;SDS011;7649;52.084;7.478;2022-10-28T00:58:28;9.37;;;5.63;;
15096;SDS011;7649;52.084;7.478;2022-10-28T01:00:57;10.47;;;5.60;;
15096;SDS011;7649;52.084;7.478;2022-10-28T01:03:25;10.40;;;5.63;;
15096;SDS011;7649;52.084;7.478;2022-10-28T01:05:53;11.33;;;5.27;;
15096;SDS011;7649;52.084;7.478;2022-10-28T01:08:22;10.00;;;5.80;;
15096;SDS011;7649;52.084;7.478;2022-10-28T01:10:55;10.17;;;5.27;;
15096;SDS011;7649;52.084;7.478;2022-10-28T01:13:28;11.47;;;5.53;;
15096;SDS011;7649;52.084;7.478;2022-10-28T01:16:02;11.40;;;5.70;;
15096;SDS011;7649;52.084;7.478;2022-10-28T01:18:32;8.97;;;5.07;;
15096;SDS011;7649;52.084;7.478;2022-10-28T01:23:57;14.10;;;5.67;;
15096;SDS011;7649;52.084;7.478;2022-10-28T01:26:35;9.87;;;5.80;;
15096;SDS011;7649;52.084;7.478;2022-10-28T01:29:13;9.57;;;5.37;;
15096;SDS011;7649;52.084;7.478;2022-10-28T01:31:48;14.57;;;5.80;;
15096;SDS011;7649;52.084;7.478;2022-10-28T01:34:19;10.07;;;5.60;;
15096;SDS011;7649;52.084;7.478;2022-10-28T01:36:52;8.83;;;5.93;;
15096;SDS011;7649;52.084;7.478;2022-10-28T01:39:25;9.83;;;5.70;;
15096;SDS011;7649;52.084;7.478;2022-10-28T01:41:55;10.17;;;5.60;;
15096;SDS011;7649;52.084;7.478;2022-10-28T01:44:26;8.03;;;5.40;;
15096;SDS011;7649;52.084;7.478;2022-10-28T01:47:00;8.00;;;4.90;;
15096;SDS011;7649;52.084;7.478;2022-10-28T01:49:31;14.77;;;6.03;;
15096;SDS011;7649;52.084;7.478;2022-10-28T01:52:04;11.43;;;6.27;;
15096;SDS011;7649;52.084;7.478;2022-10-28T01:54:34;9.03;;;5.50;;
15096;SDS011;7649;52.084;7.478;2022-10-28T01:57:03;9.97;;;5.93;;
15096;SDS011;7649;52.084;7.478;2022-10-28T01:59:32;10.57;;;5.60;;
15096;SDS011;7649;52.084;7.478;2022-10-28T02:02:02;8.20;;;5.57;;
15096;SDS011;7649;52.084;7.478;2022-10-28T02:04:30;9.60;;;5.80;;
15096;SDS011;7649;52.084;7.478;2022-10-28T02:06:58;8.43;;;5.33;;
15096;SDS011;7649;52.084;7.478;2022-10-28T02:09:31;10.43;;;5.33;;
15096;SDS011;7649;52.084;7.478;2022-10-28T02:12:03;9.63;;;5.03;;
15096;SDS011;7649;52.084;7.478;2022-10-28T02:14:39;9.00;;;5.63;;
15096;SDS011;7649;52.084;7.478;2022-10-28T02:17:16;9.50;;;5.77;;
15096;SDS011;7649;52.084;7.478;2022-10-28T02:19:46;12.90;;;5.90;;
15096;SDS011;7649;52.084;7.478;2022-10-28T02:22:17;10.60;;;6.00;;
15096;SDS011;7649;52.084;7.478;2022-10-28T02:24:49;10.87;;;6.30;;
15096;SDS011;7649;52.084;7.478;2022-10-28T02:27:24;12.57;;;6.17;;
15096;SDS011;7649;52.084;7.478;2022-10-28T02:29:57;10.80;;;6.43;;
15096;SDS011;7649;52.084;7.478;2022-10-28T02:32:28;10.60;;;5.70;;
15096;SDS011;7649;52.084;7.478;2022-10-28T02:35:01;13.57;;;6.37;;
15096;SDS011;7649;52.084;7.478;2022-10-28T02:37:30;10.70;;;6.20;;
15096;SDS011;7649;52.084;7.478;2022-10-28T02:40:01;9.77;;;6.13;;
15096;SDS011;7649;52.084;7.478;2022-10-28T02:42:31;10.60;;;6.17;;
15096;SDS011;7649;52.084;7.478;2022-10-28T02:45:04;10.23;;;6.13;;
15096;SDS011;7649;52.084;7.478;2022-10-28T02:47:36;8.67;;;5.80;;
15096;SDS011;7649;52.084;7.478;2022-10-28T02:50:08;9.47;;;6.20;;
15096;SDS011;7649;52.084;7.478;2022-10-28T02:52:37;12.90;;;6.77;;
15096;SDS011;7649;52.084;7.478;2022-10-28T02:55:07;12.57;;;5.97;;
15096;SDS011;7649;52.084;7.478;2022-10-28T02:57:43;10.43;;;6.07;;
15096;SDS011;7649;52.084;7.478;2022-10-28T03:00:14;7.57;;;5.43;;
15096;SDS011;7649;52.084;7.478;2022-10-28T03:02:44;10.40;;;6.23;;
15096;SDS011;7649;52.084;7.478;2022-10-28T03:05:12;9.17;;;6.03;;
15096;SDS011;7649;52.084;7.478;2022-10-28T03:07:41;7.50;;;5.67;;
15096;SDS011;7649;52.084;7.478;2022-10-28T03:10:09;10.03;;;5.90;;
15096;SDS011;7649;52.084;7.478;2022-10-28T03:12:37;9.17;;;6.07;;
15096;SDS011;7649;52.084;7.478;2022-10-28T03:15:06;12.27;;;6.07;;
15096;SDS011;7649;52.084;7.478;2022-10-28T03:17:34;7.67;;;6.30;;
15096;SDS011;7649;52.084;7.478;2022-10-28T03:20:04;10.37;;;6.40;;
15096;SDS011;7649;52.084;7.478;2022-10-28T03:22:32;11.40;;;6.30;;
15096;SDS011;7649;52.084;7.478;2022-10-28T03:25:00;10.67;;;6.47;;
15096;SDS011;7649;52.084;7.478;2022-10-28T03:27:29;11.87;;;6.17;;
15096;SDS011;7649;52.084;7.478;2022-10-28T03:29:57;13.20;;;5.80;;
15096;SDS011;7649;52.084;7.478;2022-10-28T03:32:25;12.67;;;6.50;;
15096;SDS011;7649;52.084;7.478;2022-10-28T03:34:53;11.30;;;5.93;;
15096;SDS011;7649;52.084;7.478;2022-10-28T03:37:23;12.93;;;6.13;;
15096;SDS011;7649;52.084;7.478;2022-10-28T03:39:51;12.00;;;6.27;;
15096;SDS011;7649;52.084;7.478;2022-10-28T03:42:20;10.40;;;6.40;;
15096;SDS011;7649;52.084;7.478;2022-10-28T03:44:48;12.37;;;6.63;;
15096;SDS011;7649;52.084;7.478;2022-10-28T03:47:16;8.90;;;5.83;;
15096;SDS011;7649;52.084;7.478;2022-10-28T03:49:44;8.60;;;5.70;;
15096;SDS011;7649;52.084;7.478;2022-10-28T03:52:13;10.73;;;6.27;;
15096;SDS011;7649;52.084;7.478;2022-10-28T03:54:43;11.57;;;6.40;;
15096;SDS011;7649;52.084;7.478;2022-10-28T03:57:11;9.70;;;6.17;;
15096;SDS011;7649;52.084;7.478;2022-10-28T03:59:39;12.50;;;6.00;;
15096;SDS011;7649;52.084;7.478;2022-10-28T04:02:07;7.60;;;5.97;;
15096;SDS011;7649;52.084;7.478;2022-10-28T04:04:36;8.63;;;6.20;;
15096;SDS011;7649;52.084;7.478;2022-10-28T04:07:04;15.30;;;6.47;;
15096;SDS011;7649;52.084;7.478;2022-10-28T04:09:32;13.90;;;5.97;;
15096;SDS011;7649;52.084;7.478;2022-10-28T04:12:02;9.80;;;5.93;;
15096;SDS011;7649;52.084;7.478;2022-10-28T04:14:35;14.77;;;6.40;;
15096;SDS011;7649;52.084;7.478;2022-10-28T04:17:03;8.43;;;5.47;;
15096;SDS011;7649;52.084;7.478;2022-10-28T04:19:31;10.20;;;5.90;;
15096;SDS011;7649;52.084;7.478;2022-10-28T04:22:00;12.87;;;7.13;;
15096;SDS011;7649;52.084;7.478;2022-10-28T04:24:28;10.80;;;6.00;;
15096;SDS011;7649;52.084;7.478;2022-10-28T04:26:56;12.17;;;6.23;;
15096;SDS011;7649;52.084;7.478;2022-10-28T04:29:26;9.00;;;5.73;;
15096;SDS011;7649;52.084;7.478;2022-10-28T04:31:54;10.17;;;7.03;;
15096;SDS011;7649;52.084;7.478;2022-10-28T04:34:22;7.17;;;5.67;;
15096;SDS011;7649;52.084;7.478;2022-10-28T04:36:50;10.30;;;6.43;;
15096;SDS011;7649;52.084;7.478;2022-10-28T04:39:18;9.40;;;5.93;;
15096;SDS011;7649;52.084;7.478;2022-10-28T04:41:47;12.17;;;5.50;;
15096;SDS011;7649;52.084;7.478;2022-10-28T04:44:15;7.97;;;5.40;;
15096;SDS011;7649;52.084;7.478;2022-10-28T04:46:45;11.57;;;6.20;;
15096;SDS011;7649;52.084;7.478;2022-10-28T04:49:13;9.63;;;6.07;;
15096;SDS011;7649;52.084;7.478;2022-10-28T04:51:41;11.03;;;6.13;;
15096;SDS011;7649;52.084;7.478;2022-10-28T04:54:10;12.30;;;5.97;;
15096;SDS011;7649;52.084;7.478;2022-10-28T04:56:38;9.47;;;5.90;;
15096;SDS011;7649;52.084;7.478;2022-10-28T04:59:06;10.80;;;6.13;;
15096;SDS011;7649;52.084;7.478;2022-10-28T05:01:35;9.27;;;5.80;;
15096;SDS011;7649;52.084;7.478;2022-10-28T05:04:06;8.70;;;5.90;;
15096;SDS011;7649;52.084;7.478;2022-10-28T05:06:34;12.30;;;5.70;;
15096;SDS011;7649;52.084;7.478;2022-10-28T05:09:02;11.17;;;6.60;;
15096;SDS011;7649;52.084;7.478;2022-10-28T05:11:31;10.87;;;6.17;;
15096;SDS011;7649;52.084;7.478;2022-10-28T05:13:59;8.83;;;5.73;;
15096;SDS011;7649;52.084;7.478;2022-10-28T05:16:27;10.13;;;6.73;;
15096;SDS011;7649;52.084;7.478;2022-10-28T05:18:56;10.10;;;6.50;;
15096;SDS011;7649;52.084;7.478;2022-10-28T05:21:25;8.07;;;6.17;;
15096;SDS011;7649;52.084;7.478;2022-10-28T05:23:54;11.33;;;6.50;;
15096;SDS011;7649;52.084;7.478;2022-10-28T05:26:22;8.20;;;6.20;;
15096;SDS011;7649;52.084;7.478;2022-10-28T05:28:50;10.43;;;6.03;;
15096;SDS011;7649;52.084;7.478;2022-10-28T05:31:19;7.90;;;5.63;;
15096;SDS011;7649;52.084;7.478;2022-10-28T05:33:47;10.83;;;6.23;;
15096;SDS011;7649;52.084;7.478;2022-10-28T05:36:15;6.70;;;5.47;;
15096;SDS011;7649;52.084;7.478;2022-10-28T05:38:45;9.83;;;5.60;;
15096;SDS011;7649;52.084;7.478;2022-10-28T05:41:15;9.13;;;5.73;;
15096;SDS011;7649;52.084;7.478;2022-10-28T05:43:43;9.23;;;5.47;;
15096;SDS011;7649;52.084;7.478;2022-10-28T05:46:11;11.27;;;6.60;;
15096;SDS011;7649;52.084;7.478;2022-10-28T05:48:40;9.50;;;6.13;;
15096;SDS011;7649;52.084;7.478;2022-10-28T05:51:08;11.10;;;6.20;;
15096;SDS011;7649;52.084;7.478;2022-10-28T05:53:36;10.90;;;6.53;;
15096;SDS011;7649;52.084;7.478;2022-10-28T05:56:08;11.93;;;6.33;;
15096;SDS011;7649;52.084;7.478;2022-10-28T05:58:36;8.67;;;6.13;;
15096;SDS011;7649;52.084;7.478;2022-10-28T06:01:05;14.37;;;7.27;;
15096;SDS011;7649;52.084;7.478;2022-10-28T06:03:33;8.50;;;6.07;;
15096;SDS011;7649;52.084;7.478;2022-10-28T06:06:02;10.77;;;6.30;;
15096;SDS011;7649;52.084;7.478;2022-10-28T06:08:30;9.80;;;6.27;;
15096;SDS011;7649;52.084;7.478;2022-10-28T06:10:58;11.27;;;6.53;;
15096;SDS011;7649;52.084;7.478;2022-10-28T06:13:28;7.00;;;5.93;;
15096;SDS011;7649;52.084;7.478;2022-10-28T06:15:57;13.00;;;6.67;;
15096;SDS011;7649;52.084;7.478;2022-10-28T06:18:25;8.50;;;5.83;;
15096;SDS011;7649;52.084;7.478;2022-10-28T06:20:53;11.87;;;6.03;;
15096;SDS011;7649;52.084;7.478;2022-10-28T06:23:22;12.23;;;6.93;;
15096;SDS011;7649;52.084;7.478;2022-10-28T06:25:50;9.47;;;6.43;;
15096;SDS011;7649;52.084;7.478;2022-10-28T06:28:24;14.70;;;6.67;;
15096;SDS011;7649;52.084;7.478;2022-10-28T06:30:54;8.50;;;5.73;;
15096;SDS011;7649;52.084;7.478;2022-10-28T06:33:28;6.33;;;5.63;;
15096;SDS011;7649;52.084;7.478;2022-10-28T06:35:59;10.07;;;6.67;;
15096;SDS011;7649;52.084;7.478;2022-10-28T06:38:27;10.37;;;6.00;;
15096;SDS011;7649;52.084;7.478;2022-10-28T06:40:56;9.00;;;5.90;;
15096;SDS011;7649;52.084;7.478;2022-10-28T06:43:25;11.67;;;6.30;;
15096;SDS011;7649;52.084;7.478;2022-10-28T06:45:55;11.27;;;6.17;;
15096;SDS011;7649;52.084;7.478;2022-10-28T06:48:23;8.67;;;5.57;;
15096;SDS011;7649;52.084;7.478;2022-10-28T06:50:53;12.60;;;5.47;;
15096;SDS011;7649;52.084;7.478;2022-10-28T06:53:23;12.40;;;5.17;;
15096;SDS011;7649;52.084;7.478;2022-10-28T06:55:51;11.17;;;5.13;;
15096;SDS011;7649;52.084;7.478;2022-10-28T06:58:20;12.20;;;5.90;;
15096;SDS011;7649;52.084;7.478;2022-10-28T07:00:48;7.73;;;4.80;;
15096;SDS011;7649;52.084;7.478;2022-10-28T07:03:18;8.93;;;5.27;;
15096;SDS011;7649;52.084;7.478;2022-10-28T07:05:47;10.20;;;4.93;;
15096;SDS011;7649;52.084;7.478;2022-10-28T07:08:16;10.60;;;5.53;;
15096;SDS011;7649;52.084;7.478;2022-10-28T07:10:51;8.57;;;4.60;;
15096;SDS011;7649;52.084;7.478;2022-10-28T07:13:20;6.77;;;4.67;;
15096;SDS011;7649;52.084;7.478;2022-10-28T07:15:51;10.97;;;4.53;;
15096;SDS011;7649;52.084;7.478;2022-10-28T07:18:22;11.70;;;4.83;;
15096;SDS011;7649;52.084;7.478;2022-10-28T07:20:50;8.97;;;4.27;;
15096;SDS011;7649;52.084;7.478;2022-10-28T07:23:19;12.30;;;4.70;;
15096;SDS011;7649;52.084;7.478;2022-10-28T07:25:50;13.20;;;5.17;;
15096;SDS011;7649;52.084;7.478;2022-10-28T07:28:24;11.43;;;4.97;;
15096;SDS011;7649;52.084;7.478;2022-10-28T07:30:53;10.43;;;4.63;;
15096;SDS011;7649;52.084;7.478;2022-10-28T07:33:23;10.30;;;4.60;;
15096;SDS011;7649;52.084;7.478;2022-10-28T07:35:51;9.83;;;4.37;;
15096;SDS011;7649;52.084;7.478;2022-10-28T07:38:19;11.00;;;4.40;;
15096;SDS011;7649;52.084;7.478;2022-10-28T07:40:48;9.68;;;4.15;;
15096;SDS011;7649;52.084;7.478;2022-10-28T07:43:16;9.43;;;4.22;;
15096;SDS011;7649;52.084;7.478;2022-10-28T07:45:44;8.55;;;4.88;;
15096;SDS011;7649;52.084;7.478;2022-10-28T07:48:13;11.77;;;4.68;;
15096;SDS011;7649;52.084;7.478;2022-10-28T07:50:42;9.75;;;4.30;;
15096;SDS011;7649;52.084;7.478;2022-10-28T07:53:11;15.82;;;4.38;;
15096;SDS011;7649;52.084;7.478;2022-10-28T07:55:39;12.80;;;4.88;;
15096;SDS011;7649;52.084;7.478;2022-10-28T07:58:07;12.63;;;4.60;;
15096;SDS011;7649;52.084;7.478;2022-10-28T08:00:35;10.70;;;4.25;;
15096;SDS011;7649;52.084;7.478;2022-10-28T08:03:04;11.98;;;4.25;;
15096;SDS011;7649;52.084;7.478;2022-10-28T08:05:32;14.45;;;4.47;;
15096;SDS011;7649;52.084;7.478;2022-10-28T08:08:02;17.38;;;4.63;;
15096;SDS011;7649;52.084;7.478;2022-10-28T08:10:31;10.57;;;4.28;;
15096;SDS011;7649;52.084;7.478;2022-10-28T08:12:59;9.82;;;4.72;;
15096;SDS011;7649;52.084;7.478;2022-10-28T08:15:27;14.00;;;4.63;;
15096;SDS011;7649;52.084;7.478;2022-10-28T08:17:56;12.07;;;4.88;;
15096;SDS011;7649;52.084;7.478;2022-10-28T08:20:24;11.10;;;4.32;;
15096;SDS011;7649;52.084;7.478;2022-10-28T08:22:52;13.57;;;4.43;;
15096;SDS011;7649;52.084;7.478;2022-10-28T08:25:23;6.80;;;4.50;;
15096;SDS011;7649;52.084;7.478;2022-10-28T08:27:51;8.40;;;4.45;;
15096;SDS011;7649;52.084;7.478;2022-10-28T08:30:19;8.70;;;4.68;;
15096;SDS011;7649;52.084;7.478;2022-10-28T08:32:48;11.52;;;4.35;;
15096;SDS011;7649;52.084;7.478;2022-10-28T08:35:17;10.45;;;4.57;;
15096;SDS011;7649;52.084;7.478;2022-10-28T08:37:49;12.18;;;4.63;;
15096;SDS011;7649;52.084;7.478;2022-10-28T08:40:18;13.02;;;4.25;;
15096;SDS011;7649;52.084;7.478;2022-10-28T08:42:49;11.00;;;4.22;;
15096;SDS011;7649;52.084;7.478;2022-10-28T08:45:24;10.98;;;4.40;;
15096;SDS011;7649;52.084;7.478;2022-10-28T08:48:02;8.25;;;4.50;;
15096;SDS011;7649;52.084;7.478;2022-10-28T08:50:33;12.45;;;4.35;;
15096;SDS011;7649;52.084;7.478;2022-10-28T08:53:02;13.85;;;4.85;;
15096;SDS011;7649;52.084;7.478;2022-10-28T08:55:33;10.18;;;4.07;;
15096;SDS011;7649;52.084;7.478;2022-10-28T08:58:05;12.77;;;4.78;;
15096;SDS011;7649;52.084;7.478;2022-10-28T09:00:34;10.88;;;4.60;;
15096;SDS011;7649;52.084;7.478;2022-10-28T09:03:11;14.73;;;4.30;;
15096;SDS011;7649;52.084;7.478;2022-10-28T09:05:42;12.73;;;4.18;;
15096;SDS011;7649;52.084;7.478;2022-10-28T09:08:21;10.60;;;4.38;;
15096;SDS011;7649;52.084;7.478;2022-10-28T09:11:00;8.75;;;4.13;;
15096;SDS011;7649;52.084;7.478;2022-10-28T09:13:34;11.23;;;4.13;;
15096;SDS011;7649;52.084;7.478;2022-10-28T09:16:05;12.13;;;4.32;;
15096;SDS011;7649;52.084;7.478;2022-10-28T09:18:45;13.02;;;4.72;;
15096;SDS011;7649;52.084;7.478;2022-10-28T09:21:18;13.18;;;4.45;;
15096;SDS011;7649;52.084;7.478;2022-10-28T09:23:49;15.90;;;4.53;;
15096;SDS011;7649;52.084;7.478;2022-10-28T09:26:22;8.20;;;4.25;;
15096;SDS011;7649;52.084;7.478;2022-10-28T09:28:56;14.60;;;4.07;;
15096;SDS011;7649;52.084;7.478;2022-10-28T09:31:29;12.30;;;4.20;;
15096;SDS011;7649;52.084;7.478;2022-10-28T09:34:06;9.80;;;4.60;;
15096;SDS011;7649;52.084;7.478;2022-10-28T09:36:39;15.85;;;4.40;;
15096;SDS011;7649;52.084;7.478;2022-10-28T09:39:12;11.15;;;3.72;;
15096;SDS011;7649;52.084;7.478;2022-10-28T09:41:55;11.60;;;4.47;;
15096;SDS011;7649;52.084;7.478;2022-10-28T09:44:27;14.75;;;4.63;;
15096;SDS011;7649;52.084;7.478;2022-10-28T09:46:58;9.20;;;4.30;;
15096;SDS011;7649;52.084;7.478;2022-10-28T09:49:29;8.15;;;3.92;;
15096;SDS011;7649;52.084;7.478;2022-10-28T09:52:00;10.45;;;4.13;;
15096;SDS011;7649;52.084;7.478;2022-10-28T09:54:40;10.32;;;4.68;;
15096;SDS011;7649;52.084;7.478;2022-10-28T09:57:09;13.70;;;4.65;;
15096;SDS011;7649;52.084;7.478;2022-10-28T09:59:44;12.82;;;4.05;;
15096;SDS011;7649;52.084;7.478;2022-10-28T10:02:22;15.77;;;4.55;;
15096;SDS011;7649;52.084;7.478;2022-10-28T10:04:53;10.90;;;4.40;;
15096;SDS011;7649;52.084;7.478;2022-10-28T10:07:24;12.13;;;4.28;;
15096;SDS011;7649;52.084;7.478;2022-10-28T10:09:53;13.15;;;4.28;;
15096;SDS011;7649;52.084;7.478;2022-10-28T10:12:23;10.88;;;4.50;;
15096;SDS011;7649;52.084;7.478;2022-10-28T10:14:53;10.60;;;4.43;;
15096;SDS011;7649;52.084;7.478;2022-10-28T10:17:23;9.32;;;4.13;;
15096;SDS011;7649;52.084;7.478;2022-10-28T10:20:03;13.20;;;4.07;;
15096;SDS011;7649;52.084;7.478;2022-10-28T10:22:33;11.27;;;4.25;;
15096;SDS011;7649;52.084;7.478;2022-10-28T10:25:02;14.68;;;4.63;;
15096;SDS011;7649;52.084;7.478;2022-10-28T10:27:30;10.60;;;4.20;;
15096;SDS011;7649;52.084;7.478;2022-10-28T10:30:00;11.98;;;4.15;;
15096;SDS011;7649;52.084;7.478;2022-10-28T10:32:29;13.60;;;4.18;;
15096;SDS011;7649;52.084;7.478;2022-10-28T10:34:59;15.02;;;4.53;;
15096;SDS011;7649;52.084;7.478;2022-10-28T10:37:29;16.75;;;4.72;;
15096;SDS011;7649;52.084;7.478;2022-10-28T10:40:05;13.15;;;4.65;;
15096;SDS011;7649;52.084;7.478;2022-10-28T10:42:35;11.63;;;3.95;;
15096;SDS011;7649;52.084;7.478;2022-10-28T10:45:25;12.00;;;4.53;;
15096;SDS011;7649;52.084;7.478;2022-10-28T10:48:08;9.73;;;4.18;;
15096;SDS011;7649;52.084;7.478;2022-10-28T10:50:38;10.50;;;4.00;;
15096;SDS011;7649;52.084;7.478;2022-10-28T10:53:14;10.70;;;4.07;;
15096;SDS011;7649;52.084;7.478;2022-10-28T10:55:46;13.93;;;4.47;;
15096;SDS011;7649;52.084;7.478;2022-10-28T10:58:16;11.40;;;4.63;;
15096;SDS011;7649;52.084;7.478;2022-10-28T11:00:48;13.32;;;3.83;;
15096;SDS011;7649;52.084;7.478;2022-10-28T11:03:18;12.60;;;4.25;;
15096;SDS011;7649;52.084;7.478;2022-10-28T11:05:48;11.25;;;4.53;;
15096;SDS011;7649;52.084;7.478;2022-10-28T11:08:37;16.17;;;4.60;;
15096;SDS011;7649;52.084;7.478;2022-10-28T11:11:07;12.68;;;4.25;;
15096;SDS011;7649;52.084;7.478;2022-10-28T11:13:38;12.68;;;4.43;;
15096;SDS011;7649;52.084;7.478;2022-10-28T11:16:19;13.52;;;4.03;;
15096;SDS011;7649;52.084;7.478;2022-10-28T11:18:49;11.10;;;4.03;;
15096;SDS011;7649;52.084;7.478;2022-10-28T11:21:26;8.88;;;3.72;;
15096;SDS011;7649;52.084;7.478;2022-10-28T11:23:59;10.68;;;3.90;;
15096;SDS011;7649;52.084;7.478;2022-10-28T11:26:34;13.90;;;4.75;;
15096;SDS011;7649;52.084;7.478;2022-10-28T11:29:06;12.13;;;4.40;;
15096;SDS011;7649;52.084;7.478;2022-10-28T11:34:36;14.90;;;4.43;;
15096;SDS011;7649;52.084;7.478;2022-10-28T11:37:10;13.63;;;4.25;;
15096;SDS011;7649;52.084;7.478;2022-10-28T11:39:43;13.85;;;4.60;;
15096;SDS011;7649;52.084;7.478;2022-10-28T11:42:19;15.73;;;4.00;;
15096;SDS011;7649;52.084;7.478;2022-10-28T11:44:53;8.75;;;4.00;;
15096;SDS011;7649;52.084;7.478;2022-10-28T11:50:20;11.93;;;3.92;;
15096;SDS011;7649;52.084;7.478;2022-10-28T11:52:56;12.70;;;4.22;;
15096;SDS011;7649;52.084;7.478;2022-10-28T11:55:30;15.48;;;4.50;;
15096;SDS011;7649;52.084;7.478;2022-10-28T11:58:04;15.25;;;4.43;;
15096;SDS011;7649;52.084;7.478;2022-10-28T12:00:36;10.55;;;3.65;;
15096;SDS011;7649;52.084;7.478;2022-10-28T12:03:12;10.95;;;4.03;;
15096;SDS011;7649;52.084;7.478;2022-10-28T12:05:48;13.15;;;4.43;;
15096;SDS011;7649;52.084;7.478;2022-10-28T12:08:21;12.40;;;4.10;;
15096;SDS011;7649;52.084;7.478;2022-10-28T12:10:56;11.95;;;4.30;;
15096;SDS011;7649;52.084;7.478;2022-10-28T12:13:31;11.77;;;4.40;;
15096;SDS011;7649;52.084;7.478;2022-10-28T12:16:03;17.38;;;4.15;;
15096;SDS011;7649;52.084;7.478;2022-10-28T12:18:34;13.60;;;4.53;;
15096;SDS011;7649;52.084;7.478;2022-10-28T12:21:10;14.10;;;4.20;;
15096;SDS011;7649;52.084;7.478;2022-10-28T12:23:41;10.20;;;4.18;;
15096;SDS011;7649;52.084;7.478;2022-10-28T12:26:11;16.27;;;4.72;;
15096;SDS011;7649;52.084;7.478;2022-10-28T12:28:41;15.68;;;5.13;;
15096;SDS011;7649;52.084;7.478;2022-10-28T12:31:15;13.68;;;4.20;;
15096;SDS011;7649;52.084;7.478;2022-10-28T12:33:45;12.20;;;4.57;;
15096;SDS011;7649;52.084;7.478;2022-10-28T12:36:17;12.48;;;4.05;;
15096;SDS011;7649;52.084;7.478;2022-10-28T12:38:48;10.85;;;4.28;;
15096;SDS011;7649;52.084;7.478;2022-10-28T12:41:20;15.85;;;4.63;;
15096;SDS011;7649;52.084;7.478;2022-10-28T12:43:50;13.75;;;4.47;;
15096;SDS011;7649;52.084;7.478;2022-10-28T12:46:21;13.98;;;4.32;;
15096;SDS011;7649;52.084;7.478;2022-10-28T12:48:53;17.00;;;4.55;;
15096;SDS011;7649;52.084;7.478;2022-10-28T12:51:24;16.70;;;4.90;;
15096;SDS011;7649;52.084;7.478;2022-10-28T12:53:54;11.00;;;4.32;;
15096;SDS011;7649;52.084;7.478;2022-10-28T12:56:25;14.63;;;4.30;;
15096;SDS011;7649;52.084;7.478;2022-10-28T12:58:56;15.98;;;4.28;;
15096;SDS011;7649;52.084;7.478;2022-10-28T13:01:27;11.20;;;4.10;;
15096;SDS011;7649;52.084;7.478;2022-10-28T13:03:56;10.88;;;3.95;;
15096;SDS011;7649;52.084;7.478;2022-10-28T13:06:30;11.38;;;4.50;;
15096;SDS011;7649;52.084;7.478;2022-10-28T13:11:48;17.67;;;4.28;;
15096;SDS011;7649;52.084;7.478;2022-10-28T13:14:23;12.52;;;4.38;;
15096;SDS011;7649;52.084;7.478;2022-10-28T13:17:07;16.10;;;4.90;;
15096;SDS011;7649;52.084;7.478;2022-10-28T13:19:48;16.30;;;4.38;;
15096;SDS011;7649;52.084;7.478;2022-10-28T13:22:40;14.50;;;4.03;;
15096;SDS011;7649;52.084;7.478;2022-10-28T13:25:24;10.70;;;3.78;;
15096;SDS011;7649;52.084;7.478;2022-10-28T13:27:55;13.30;;;4.57;;
15096;SDS011;7649;52.084;7.478;2022-10-28T13:30:24;10.77;;;4.03;;
15096;SDS011;7649;52.084;7.478;2022-10-28T13:32:58;12.18;;;4.75;;
15096;SDS011;7649;52.084;7.478;2022-10-28T13:35:28;16.88;;;4.78;;
15096;SDS011;7649;52.084;7.478;2022-10-28T13:37:58;9.85;;;3.92;;
15096;SDS011;7649;52.084;7.478;2022-10-28T13:43:16;16.05;;;4.40;;
15096;SDS011;7649;52.084;7.478;2022-10-28T13:45:46;12.63;;;4.20;;
15096;SDS011;7649;52.084;7.478;2022-10-28T13:54:14;10.77;;;4.53;;
15096;SDS011;7649;52.084;7.478;2022-10-28T13:56:50;11.05;;;3.67;;
15096;SDS011;7649;52.084;7.478;2022-10-28T14:02:15;10.05;;;3.97;;
15096;SDS011;7649;52.084;7.478;2022-10-28T14:05:02;11.40;;;4.53;;
15096;SDS011;7649;52.084;7.478;2022-10-28T14:07:31;11.90;;;4.30;;
15096;SDS011;7649;52.084;7.478;2022-10-28T14:12:59;11.93;;;4.40;;
15096;SDS011;7649;52.084;7.478;2022-10-28T14:15:29;12.95;;;3.80;;
15096;SDS011;7649;52.084;7.478;2022-10-28T14:17:59;11.45;;;4.00;;
15096;SDS011;7649;52.084;7.478;2022-10-28T14:20:53;11.48;;;4.22;;
15096;SDS011;7649;52.084;7.478;2022-10-28T14:26:13;12.02;;;4.78;;
15096;SDS011;7649;52.084;7.478;2022-10-28T14:28:52;12.40;;;4.13;;
15096;SDS011;7649;52.084;7.478;2022-10-28T14:31:40;12.35;;;4.45;;
15096;SDS011;7649;52.084;7.478;2022-10-28T14:34:25;15.45;;;4.97;;
15096;SDS011;7649;52.084;7.478;2022-10-28T14:36:57;13.30;;;4.28;;
15096;SDS011;7649;52.084;7.478;2022-10-28T14:39:32;19.17;;;4.57;;
15096;SDS011;7649;52.084;7.478;2022-10-28T14:42:10;12.93;;;4.60;;
15096;SDS011;7649;52.084;7.478;2022-10-28T14:44:46;12.65;;;5.07;;
15096;SDS011;7649;52.084;7.478;2022-10-28T14:47:25;14.40;;;5.07;;
15096;SDS011;7649;52.084;7.478;2022-10-28T14:49:58;11.90;;;4.55;;
15096;SDS011;7649;52.084;7.478;2022-10-28T14:52:28;16.48;;;4.90;;
15096;SDS011;7649;52.084;7.478;2022-10-28T14:54:58;13.20;;;4.30;;
15096;SDS011;7649;52.084;7.478;2022-10-28T14:57:29;14.60;;;4.53;;
15096;SDS011;7649;52.084;7.478;2022-10-28T15:00:05;11.90;;;4.43;;
15096;SDS011;7649;52.084;7.478;2022-10-28T15:02:34;11.52;;;4.18;;
15096;SDS011;7649;52.084;7.478;2022-10-28T15:05:13;12.25;;;4.93;;
15096;SDS011;7649;52.084;7.478;2022-10-28T15:08:01;17.27;;;5.07;;
15096;SDS011;7649;52.084;7.478;2022-10-28T15:10:32;13.85;;;4.85;;
15096;SDS011;7649;52.084;7.478;2022-10-28T15:13:05;12.45;;;4.75;;
15096;SDS011;7649;52.084;7.478;2022-10-28T15:15:36;16.20;;;4.70;;
15096;SDS011;7649;52.084;7.478;2022-10-28T15:18:16;13.45;;;5.05;;
15096;SDS011;7649;52.084;7.478;2022-10-28T15:20:46;16.02;;;4.85;;
15096;SDS011;7649;52.084;7.478;2022-10-28T15:23:16;15.98;;;5.13;;
15096;SDS011;7649;52.084;7.478;2022-10-28T15:25:45;13.95;;;5.45;;
15096;SDS011;7649;52.084;7.478;2022-10-28T15:28:35;19.30;;;5.30;;
15096;SDS011;7649;52.084;7.478;2022-10-28T15:31:06;15.95;;;5.20;;
15096;SDS011;7649;52.084;7.478;2022-10-28T15:33:36;12.43;;;4.78;;
15096;SDS011;7649;52.084;7.478;2022-10-28T15:36:08;15.38;;;5.05;;
15096;SDS011;7649;52.084;7.478;2022-10-28T15:38:44;14.55;;;4.57;;
15096;SDS011;7649;52.084;7.478;2022-10-28T15:44:21;17.67;;;4.65;;
15096;SDS011;7649;52.084;7.478;2022-10-28T15:46:55;17.10;;;4.57;;